createdAt,value
2023-12-07T00:00:23.071Z,99765.49
2023-12-07T00:03:16.775Z,99768.88
2023-12-07T00:05:49.016Z,99773.70
2023-12-07T00:08:21.102Z,99772.12
2023-12-07T00:10:53.165Z,99770.86
2023-12-07T00:13:25.269Z,99769.61
2023-12-07T00:15:57.355Z,99771.79
2023-12-07T00:18:29.474Z,99769.66
2023-12-07T00:21:01.535Z,99772.08
2023-12-07T00:23:33.534Z,99770.71
2023-12-07T00:26:05.769Z,99775.25
2023-12-07T00:28:37.785Z,99778.40
2023-12-07T00:31:10.271Z,99777.27
2023-12-07T00:33:43.230Z,99776.48
2023-12-07T00:36:15.227Z,99777.19
2023-12-07T00:38:47.236Z,99780.13
2023-12-07T00:41:19.606Z,99778.73
2023-12-07T00:43:51.697Z,99778.64
2023-12-07T00:46:24.468Z,99779.75
2023-12-07T00:48:56.612Z,99774.78
2023-12-07T00:51:28.652Z,99776.64
2023-12-07T00:54:00.642Z,99777.17
2023-12-07T00:56:32.614Z,99782.06
2023-12-07T00:59:04.550Z,99782.55
2023-12-07T01:01:36.575Z,99788.65
2023-12-07T01:04:08.794Z,99791.33
2023-12-07T01:06:41.017Z,99790.13
2023-12-07T01:09:14.474Z,99791.15
2023-12-07T01:11:46.554Z,99799.23
2023-12-07T01:14:18.923Z,99794.18
2023-12-07T01:16:50.896Z,99795.76
2023-12-07T01:19:23.579Z,99799.89
2023-12-07T01:21:55.584Z,99804.65
2023-12-07T01:24:27.759Z,99802.27
2023-12-07T01:27:00.047Z,99805.04
2023-12-07T01:29:32.033Z,99811.80
2023-12-07T01:32:04.043Z,99811.38
2023-12-07T01:34:36.114Z,99805.61
2023-12-07T01:37:08.953Z,99805.70
2023-12-07T01:39:40.993Z,99806.48
2023-12-07T01:42:13.572Z,99803.56
2023-12-07T01:44:45.867Z,99804.35
2023-12-07T01:47:18.680Z,99803.10
2023-12-07T01:49:50.729Z,99802.25
2023-12-07T01:52:24.703Z,99802.65
2023-12-07T01:54:57.334Z,99803.39
2023-12-07T01:57:29.373Z,99804.84
2023-12-07T02:00:01.528Z,99802.77
2023-12-07T02:02:36.859Z,99803.04
2023-12-07T02:05:10.136Z,99804.57
2023-12-07T02:07:43.531Z,99804.85
2023-12-07T02:10:16.731Z,99805.84
2023-12-07T02:12:49.848Z,99806.08
2023-12-07T02:15:22.289Z,99799.19
2023-12-07T02:18:04.277Z,99801.79
2023-12-07T02:20:45.508Z,99808.81
2023-12-07T02:23:32.139Z,99809.83
2023-12-07T02:26:55.905Z,99817.02
2023-12-07T02:29:27.866Z,99813.96
2023-12-07T02:31:59.865Z,99817.69
2023-12-07T02:34:31.829Z,99821.23
2023-12-07T02:37:06.022Z,99824.63
2023-12-07T02:39:38.405Z,99824.63
2023-12-07T02:42:12.115Z,99822.05
2023-12-07T02:44:44.561Z,99822.77
2023-12-07T02:47:16.869Z,99827.55
2023-12-07T02:49:48.926Z,99834.48
2023-12-07T02:52:21.527Z,99833.50
2023-12-07T02:54:53.721Z,99835.00
2023-12-07T02:57:25.658Z,99835.75
2023-12-07T02:59:58.028Z,99837.05
2023-12-07T03:02:30.372Z,99837.13
2023-12-07T03:05:02.491Z,99840.27
2023-12-07T03:07:34.897Z,99839.69
2023-12-07T03:10:08.250Z,99839.27
2023-12-07T03:12:40.320Z,99839.16
2023-12-07T03:15:14.753Z,99840.14
2023-12-07T03:17:46.750Z,99845.05
2023-12-07T03:20:19.227Z,99844.20
2023-12-07T03:22:51.347Z,99839.73
2023-12-07T03:25:23.935Z,99839.20
2023-12-07T03:27:56.010Z,99837.01
2023-12-07T03:30:28.053Z,99838.98
2023-12-07T03:33:00.110Z,99844.27
2023-12-07T03:35:32.306Z,99844.30
2023-12-07T03:38:04.709Z,99848.77
2023-12-07T03:40:36.725Z,99854.27
2023-12-07T03:43:08.889Z,99856.98
2023-12-07T03:45:40.876Z,99855.14
2023-12-07T03:48:12.903Z,99858.16
2023-12-07T03:50:45.085Z,99859.17
2023-12-07T03:53:17.035Z,99861.40
2023-12-07T03:55:48.990Z,99866.18
2023-12-07T03:58:20.968Z,99870.11
2023-12-07T04:00:52.977Z,99874.34
2023-12-07T04:03:24.978Z,99877.48
2023-12-07T04:05:57.069Z,99874.71
2023-12-07T04:08:29.150Z,99879.54
2023-12-07T04:11:01.132Z,99885.29
2023-12-07T04:13:33.183Z,99886.15
2023-12-07T04:16:05.455Z,99888.98
2023-12-07T04:18:37.741Z,99894.48
2023-12-07T04:21:10.307Z,99897.02
2023-12-07T04:23:42.292Z,99898.26
2023-12-07T04:26:14.524Z,99899.39
2023-12-07T04:28:46.558Z,99905.66
2023-12-07T04:31:18.720Z,99906.77
2023-12-07T04:33:50.731Z,99904.44
2023-12-07T04:36:22.788Z,99902.06
2023-12-07T04:38:54.725Z,99911.82
2023-12-07T04:41:26.738Z,99913.36
2023-12-07T04:43:58.807Z,99916.84
2023-12-07T04:46:30.978Z,99915.31
2023-12-07T04:49:03.087Z,99913.52
2023-12-07T04:51:35.498Z,99913.26
2023-12-07T04:54:16.164Z,99916.06
2023-12-07T04:56:51.288Z,99917.06
2023-12-07T04:59:23.291Z,99916.78
2023-12-07T05:01:55.291Z,99917.50
2023-12-07T05:04:27.279Z,99915.93
2023-12-07T05:06:59.295Z,99917.59
2023-12-07T05:09:32.371Z,99917.70
2023-12-07T05:12:04.391Z,99919.46
2023-12-07T05:14:37.498Z,99919.83
2023-12-07T05:17:09.455Z,99922.64
2023-12-07T05:19:41.513Z,99923.05
2023-12-07T05:22:13.554Z,99928.35
2023-12-07T05:24:45.520Z,99936.30
2023-12-07T05:27:17.476Z,99934.44
2023-12-07T05:29:49.398Z,99935.86
2023-12-07T05:32:21.415Z,99935.07
2023-12-07T05:34:53.500Z,99943.18
2023-12-07T05:37:25.489Z,99946.70
2023-12-07T05:39:57.444Z,99951.77
2023-12-07T05:42:29.484Z,99953.22
2023-12-07T05:45:01.727Z,99952.17
2023-12-07T05:47:33.746Z,99955.91
2023-12-07T05:50:06.597Z,99958.09
2023-12-07T05:52:38.625Z,99965.24
2023-12-07T05:55:11.225Z,99967.43
2023-12-07T05:57:43.188Z,99965.18
2023-12-07T06:00:17.601Z,99973.02
2023-12-07T06:02:50.703Z,99977.83
2023-12-07T06:05:23.452Z,99982.50
2023-12-07T06:07:56.717Z,99983.91
2023-12-07T06:10:28.708Z,99982.15
2023-12-07T06:13:02.045Z,99985.73
2023-12-07T06:15:34.103Z,99988.08
2023-12-07T06:18:06.756Z,99994.85
2023-12-07T06:20:38.787Z,99993.31
2023-12-07T06:23:13.960Z,99993.52
2023-12-07T06:25:46.355Z,99999.75
2023-12-07T06:28:18.363Z,100001.80
2023-12-07T06:30:50.586Z,100002.83
2023-12-07T06:33:22.725Z,100002.52
2023-12-07T06:35:54.820Z,100002.06
2023-12-07T06:38:26.953Z,100005.44
2023-12-07T06:40:59.231Z,100002.16
2023-12-07T06:43:31.285Z,100007.50
2023-12-07T06:46:05.451Z,100006.50
2023-12-07T06:48:37.706Z,100010.48
2023-12-07T06:51:10.201Z,100011.40
2023-12-07T06:53:42.818Z,100011.96
2023-12-07T06:56:16.103Z,100013.73
2023-12-07T06:58:48.278Z,100016.29
2023-12-07T07:01:20.319Z,100017.02
2023-12-07T07:03:52.381Z,100019.80
2023-12-07T07:06:24.438Z,100021.27
2023-12-07T07:08:59.238Z,100025.59
2023-12-07T07:11:32.173Z,100033.12
2023-12-07T07:14:04.229Z,100038.89
2023-12-07T07:16:36.224Z,100042.17
2023-12-07T07:19:08.272Z,100039.42
2023-12-07T07:21:40.475Z,100041.52
2023-12-07T07:24:12.776Z,100048.20
2023-12-07T07:26:44.806Z,100040.17
2023-12-07T07:29:16.960Z,100039.17
2023-12-07T07:31:49.120Z,100043.14
2023-12-07T07:34:21.489Z,100037.40
2023-12-07T07:36:53.609Z,100040.89
2023-12-07T07:39:25.545Z,100040.42
2023-12-07T07:41:57.537Z,100040.12
2023-12-07T07:44:29.501Z,100044.20
2023-12-07T07:47:01.454Z,100049.85
2023-12-07T07:49:33.490Z,100053.00
2023-12-07T07:52:06.290Z,100055.63
2023-12-07T07:54:41.081Z,100055.61
2023-12-07T07:57:13.068Z,100055.14
2023-12-07T07:59:46.270Z,100056.66
2023-12-07T08:02:18.424Z,100059.88
2023-12-07T08:04:50.417Z,100061.45
2023-12-07T08:07:22.671Z,100063.45
2023-12-07T08:09:55.428Z,100058.16
2023-12-07T08:12:27.435Z,100060.52
2023-12-07T08:14:59.452Z,100065.05
2023-12-07T08:17:32.306Z,100067.49
2023-12-07T08:20:04.274Z,100070.06
2023-12-07T08:22:36.384Z,100073.90
2023-12-07T08:25:11.953Z,100076.79
2023-12-07T08:27:45.559Z,100077.89
2023-12-07T08:30:19.973Z,100077.29
2023-12-07T08:32:52.170Z,100075.13
2023-12-07T08:35:24.597Z,100079.09
2023-12-07T08:37:57.228Z,100083.88
2023-12-07T08:40:29.367Z,100083.36
2023-12-07T08:43:01.433Z,100081.52
2023-12-07T08:45:34.109Z,100084.75
2023-12-07T08:48:06.639Z,100084.15
2023-12-07T08:50:38.620Z,100089.82
2023-12-07T08:53:10.673Z,100090.45
2023-12-07T08:55:42.776Z,100089.23
2023-12-07T08:58:14.896Z,100088.85
2023-12-07T09:00:46.926Z,100090.81
2023-12-07T09:03:18.832Z,100097.29
2023-12-07T09:05:50.900Z,100098.36
2023-12-07T09:08:23.424Z,100101.77
2023-12-07T09:10:55.455Z,100108.41
2023-12-07T09:13:27.746Z,100113.86
2023-12-07T09:15:59.710Z,100113.33
2023-12-07T09:18:31.677Z,100111.63
2023-12-07T09:21:04.364Z,100109.75
2023-12-07T09:23:38.714Z,100108.23
2023-12-07T09:26:10.706Z,100106.27
2023-12-07T09:28:42.812Z,100103.60
2023-12-07T09:31:14.830Z,100106.37
2023-12-07T09:33:49.062Z,100107.27
2023-12-07T09:36:22.414Z,100106.00
2023-12-07T09:38:54.351Z,100104.67
2023-12-07T09:41:28.849Z,100104.79
2023-12-07T09:44:02.194Z,100107.42
2023-12-07T09:46:34.963Z,100107.92
2023-12-07T09:49:07.150Z,100109.79
2023-12-07T09:51:41.714Z,100110.86
2023-12-07T09:54:14.761Z,100112.14
2023-12-07T09:56:47.572Z,100106.36
2023-12-07T09:59:22.348Z,100101.69
2023-12-07T10:01:54.354Z,100098.09
2023-12-07T10:04:27.629Z,100097.55
2023-12-07T10:07:00.274Z,100095.71
2023-12-07T10:09:33.721Z,100093.71
2023-12-07T10:12:11.964Z,100093.61
2023-12-07T10:14:44.845Z,100096.82
2023-12-07T10:17:17.114Z,100095.04
2023-12-07T10:20:09.668Z,100095.90
2023-12-07T10:22:43.026Z,100097.00
2023-12-07T10:25:16.577Z,100092.36
2023-12-07T10:27:49.280Z,100091.70
2023-12-07T10:30:26.633Z,100092.30
2023-12-07T10:32:58.952Z,100087.48
2023-12-07T10:35:31.621Z,100088.34
2023-12-07T10:38:03.627Z,100084.90
2023-12-07T10:40:35.702Z,100086.48
2023-12-07T10:43:09.821Z,100083.80
2023-12-07T10:45:45.839Z,100083.89
2023-12-07T10:48:19.231Z,100082.20
2023-12-07T10:50:56.316Z,100085.39
2023-12-07T10:53:38.681Z,100083.71
2023-12-07T10:56:18.783Z,100082.77
2023-12-07T10:58:51.801Z,100086.66
2023-12-07T11:01:25.021Z,100084.57
2023-12-07T11:03:58.378Z,100086.45
2023-12-07T11:06:30.971Z,100083.98
2023-12-07T11:09:05.322Z,100081.06
2023-12-07T11:11:43.332Z,100080.48
2023-12-07T11:14:17.152Z,100086.98
2023-12-07T11:16:49.816Z,100085.77
2023-12-07T11:19:50.064Z,100090.75
2023-12-07T11:22:24.489Z,100093.34
2023-12-07T11:25:02.749Z,100091.50
2023-12-07T11:27:35.880Z,100093.26
2023-12-07T11:30:10.105Z,100095.00
2023-12-07T11:32:42.311Z,100096.48
2023-12-07T11:35:16.990Z,100087.54
2023-12-07T11:38:09.746Z,100086.29
2023-12-07T11:40:42.893Z,100087.17
2023-12-07T11:43:33.305Z,100089.56
2023-12-07T11:46:05.790Z,100089.10
2023-12-07T11:48:38.268Z,100090.70
2023-12-07T11:51:12.237Z,100093.16
2023-12-07T11:53:44.315Z,100093.81
2023-12-07T11:56:20.068Z,100093.48
2023-12-07T11:58:54.068Z,100091.17
2023-12-07T12:01:31.659Z,100088.22
2023-12-07T12:04:05.527Z,100091.78
2023-12-07T12:06:37.868Z,100085.75
2023-12-07T12:09:12.905Z,100083.16
2023-12-07T12:11:50.029Z,100089.02
2023-12-07T12:14:23.779Z,100088.22
2023-12-07T12:16:56.605Z,100091.15
2023-12-07T12:19:33.486Z,100087.94
2023-12-07T12:22:08.619Z,100085.98
2023-12-07T12:24:42.660Z,100090.27
2023-12-07T12:27:15.427Z,100086.27
2023-12-07T12:29:48.151Z,100086.88
2023-12-07T12:32:20.113Z,100085.30
2023-12-07T12:34:55.726Z,100086.27
2023-12-07T12:37:28.192Z,100085.90
2023-12-07T12:40:04.232Z,100085.73
2023-12-07T12:42:38.543Z,100090.96
2023-12-07T12:45:15.694Z,100090.28
2023-12-07T12:47:49.043Z,100090.26
2023-12-07T12:50:41.917Z,100090.10
2023-12-07T12:53:15.253Z,100087.02
2023-12-07T12:55:50.590Z,100081.66
2023-12-07T12:58:23.768Z,100079.83
2023-12-07T13:00:58.096Z,100080.61
2023-12-07T13:03:30.853Z,100084.86
2023-12-07T13:06:03.940Z,100085.86
2023-12-07T13:08:36.438Z,100088.56
2023-12-07T13:11:10.108Z,100088.98
2023-12-07T13:13:42.262Z,100092.45
2023-12-07T13:16:16.078Z,100097.77
2023-12-07T13:18:48.186Z,100099.23
2023-12-07T13:21:20.458Z,100100.67
2023-12-07T13:23:52.693Z,100101.71
2023-12-07T13:26:25.526Z,100105.17
2023-12-07T13:28:57.558Z,100108.73
2023-12-07T13:31:29.588Z,100111.25
2023-12-07T13:34:04.401Z,100112.56
2023-12-07T13:36:38.915Z,100118.66
2023-12-07T13:39:23.829Z,100119.98
2023-12-07T13:42:04.181Z,100123.86
2023-12-07T13:44:37.981Z,100123.66
2023-12-07T13:47:11.040Z,100123.38
2023-12-07T13:49:43.328Z,100125.73
2023-12-07T13:52:17.688Z,100127.98
2023-12-07T13:54:54.010Z,100124.94
2023-12-07T13:57:27.139Z,100128.54
2023-12-07T13:59:59.701Z,100127.49
2023-12-07T14:02:32.557Z,100126.91
2023-12-07T14:05:06.156Z,100127.98
2023-12-07T14:07:38.371Z,100128.39
2023-12-07T14:10:11.393Z,100132.77
2023-12-07T14:12:43.926Z,100132.66
2023-12-07T14:15:23.614Z,100134.63
2023-12-07T14:18:03.794Z,100137.20
2023-12-07T14:20:50.783Z,100133.71
2023-12-07T14:23:27.896Z,100132.11
2023-12-07T14:26:03.189Z,100132.65
2023-12-07T14:28:35.238Z,100136.67
2023-12-07T14:31:15.564Z,100136.69
2023-12-07T14:33:48.239Z,100134.90
2023-12-07T14:36:21.249Z,100143.48
2023-12-07T14:38:55.131Z,100145.14
2023-12-07T14:41:27.418Z,100147.55
2023-12-07T14:43:59.578Z,100147.70
2023-12-07T14:46:32.174Z,100146.88
2023-12-07T14:49:05.080Z,100140.09
2023-12-07T14:51:37.637Z,100137.18
2023-12-07T14:54:11.065Z,100138.71
2023-12-07T14:56:46.317Z,100141.71
2023-12-07T14:59:21.211Z,100143.16
2023-12-07T15:01:53.557Z,100146.27
2023-12-07T15:04:31.597Z,100148.59
2023-12-07T15:07:07.281Z,100153.02
2023-12-07T15:09:39.734Z,100153.60
2023-12-07T15:12:12.259Z,100155.42
2023-12-07T15:14:46.747Z,100159.85
2023-12-07T15:17:18.900Z,100162.51
2023-12-07T15:19:51.271Z,100165.92
2023-12-07T15:22:24.001Z,100168.08
2023-12-07T15:24:56.360Z,100165.98
2023-12-07T15:27:28.612Z,100166.61
2023-12-07T15:30:01.122Z,100163.60
2023-12-07T15:32:33.681Z,100162.92
2023-12-07T15:35:07.281Z,100163.12
2023-12-07T15:37:39.574Z,100164.69
2023-12-07T15:40:13.119Z,100170.17
2023-12-07T15:42:45.304Z,100169.40
2023-12-07T15:45:17.890Z,100168.24
2023-12-07T15:47:53.801Z,100169.91
2023-12-07T15:50:28.610Z,100170.58
2023-12-07T15:53:00.772Z,100172.13
2023-12-07T15:55:33.069Z,100172.14
2023-12-07T15:58:06.903Z,100175.30
2023-12-07T16:00:40.222Z,100176.77
2023-12-07T16:03:12.385Z,100178.85
2023-12-07T16:05:44.822Z,100172.34
2023-12-07T16:08:18.246Z,100173.55
2023-12-07T16:10:50.381Z,100173.89
2023-12-07T16:13:23.145Z,100173.33
2023-12-07T16:15:57.206Z,100174.71
2023-12-07T16:18:29.758Z,100175.23
2023-12-07T16:21:02.268Z,100174.77
2023-12-07T16:23:34.545Z,100178.92
2023-12-07T16:26:07.174Z,100182.27
2023-12-07T16:28:39.645Z,100181.05
2023-12-07T16:31:11.884Z,100182.10
2023-12-07T16:33:44.615Z,100178.31
2023-12-07T16:36:23.405Z,100177.87
2023-12-07T16:39:01.496Z,100175.34
2023-12-07T16:41:40.832Z,100178.30
2023-12-07T16:44:17.510Z,100174.14
2023-12-07T16:46:49.766Z,100177.79
2023-12-07T16:49:23.738Z,100178.40
2023-12-07T16:51:56.635Z,100181.18
2023-12-07T16:54:29.974Z,100183.41
2023-12-07T16:57:02.946Z,100184.04
2023-12-07T16:59:35.579Z,100188.02
2023-12-07T17:02:09.736Z,100189.55
2023-12-07T17:04:42.408Z,100188.77
2023-12-07T17:07:16.571Z,100189.18
2023-12-07T17:09:48.748Z,100188.77
2023-12-07T17:12:22.320Z,100193.05
2023-12-07T17:14:54.902Z,100197.05
2023-12-07T17:17:27.754Z,100196.03
2023-12-07T17:20:00.465Z,100193.61
2023-12-07T17:22:34.220Z,100192.44
2023-12-07T17:25:09.218Z,100195.85
2023-12-07T17:27:41.381Z,100197.45
2023-12-07T17:30:15.205Z,100197.33
2023-12-07T17:32:47.647Z,100195.45
2023-12-07T17:35:20.253Z,100194.08
2023-12-07T17:37:52.371Z,100198.09
2023-12-07T17:40:24.580Z,100198.59
2023-12-07T17:42:57.144Z,100203.70
2023-12-07T17:45:30.281Z,100205.67
2023-12-07T17:48:02.747Z,100202.23
2023-12-07T17:50:35.490Z,100203.77
2023-12-07T17:53:08.430Z,100197.46
2023-12-07T17:55:41.076Z,100196.18
2023-12-07T17:58:13.354Z,100198.80
2023-12-07T18:00:45.522Z,100200.05
2023-12-07T18:03:17.819Z,100200.75
2023-12-07T18:05:51.111Z,100198.56
2023-12-07T18:08:23.383Z,100195.91
2023-12-07T18:10:55.663Z,100198.84
2023-12-07T18:13:27.857Z,100197.55
2023-12-07T18:16:00.647Z,100193.55
2023-12-07T18:18:33.368Z,100195.65
2023-12-07T18:21:07.384Z,100199.77
2023-12-07T18:23:44.362Z,100201.02
2023-12-07T18:26:16.961Z,100204.23
2023-12-07T18:28:49.393Z,100205.38
2023-12-07T18:31:22.306Z,100204.40
2023-12-07T18:33:54.664Z,100202.62
2023-12-07T18:36:27.509Z,100204.38
2023-12-07T18:39:00.207Z,100202.64
2023-12-07T18:41:33.772Z,100201.77
2023-12-07T18:44:07.070Z,100202.98
2023-12-07T18:46:42.221Z,100208.45
2023-12-07T18:49:16.119Z,100212.20
2023-12-07T18:51:49.344Z,100214.45
2023-12-07T18:54:25.001Z,100215.40
2023-12-07T18:56:57.912Z,100215.50
2023-12-07T18:59:32.290Z,100211.83
2023-12-07T19:02:05.684Z,100209.94
2023-12-07T19:04:38.729Z,100203.05
2023-12-07T19:07:11.570Z,100205.05
2023-12-07T19:09:45.903Z,100208.46
2023-12-07T19:12:18.610Z,100210.75
2023-12-07T19:14:51.484Z,100214.54
2023-12-07T19:17:25.098Z,100217.69
2023-12-07T19:19:58.298Z,100216.48
2023-12-07T19:22:31.247Z,100214.21
2023-12-07T19:25:04.027Z,100217.61
2023-12-07T19:27:38.985Z,100215.02
2023-12-07T19:30:12.993Z,100211.98
2023-12-07T19:32:45.622Z,100210.20
2023-12-07T19:35:17.983Z,100213.52
2023-12-07T19:37:50.169Z,100209.44
2023-12-07T19:40:22.946Z,100212.41
2023-12-07T19:42:55.898Z,100216.04
2023-12-07T19:45:28.481Z,100211.90
2023-12-07T19:48:01.237Z,100210.90
2023-12-07T19:50:34.072Z,100208.90
2023-12-07T19:53:07.072Z,100214.75
2023-12-07T19:55:39.809Z,100209.98
2023-12-07T19:58:12.164Z,100213.77
2023-12-07T20:00:45.986Z,100215.05
2023-12-07T20:03:18.595Z,100215.14
2023-12-07T20:05:51.176Z,100214.29
2023-12-07T20:08:24.083Z,100215.23
2023-12-07T20:10:59.452Z,100212.09
2023-12-07T20:13:34.709Z,100212.30
2023-12-07T20:16:08.368Z,100215.08
2023-12-07T20:18:41.541Z,100222.14
2023-12-07T20:21:15.120Z,100220.15
2023-12-07T20:23:48.012Z,100224.03
2023-12-07T20:26:22.245Z,100223.43
2023-12-07T20:28:55.199Z,100227.46
2023-12-07T20:31:27.577Z,100227.34
2023-12-07T20:34:00.512Z,100229.25
2023-12-07T20:36:33.361Z,100227.20
2023-12-07T20:39:06.146Z,100227.68
2023-12-07T20:41:38.678Z,100229.73
2023-12-07T20:44:11.244Z,100227.27
2023-12-07T20:46:43.498Z,100225.31
2023-12-07T20:49:15.923Z,100224.45
2023-12-07T20:51:50.807Z,100225.95
2023-12-07T20:54:23.399Z,100221.47
2023-12-07T20:56:55.858Z,100222.69
2023-12-07T20:59:28.093Z,100220.71
2023-12-07T21:02:00.806Z,100214.27
2023-12-07T21:04:33.144Z,100210.09
2023-12-07T21:07:06.218Z,100205.61
2023-12-07T21:09:39.015Z,100201.88
2023-12-07T21:12:11.603Z,100202.57
2023-12-07T21:14:44.055Z,100204.01
2023-12-07T21:17:19.982Z,100201.15
2023-12-07T21:19:52.293Z,100199.85
2023-12-07T21:22:24.689Z,100196.14
2023-12-07T21:24:58.219Z,100189.55
2023-12-07T21:27:31.296Z,100183.55
2023-12-07T21:30:04.184Z,100176.52
2023-12-07T21:32:36.998Z,100172.26
2023-12-07T21:35:11.767Z,100166.98
2023-12-07T21:37:44.259Z,100166.41
2023-12-07T21:40:16.653Z,100166.08
2023-12-07T21:42:48.979Z,100161.98
2023-12-07T21:45:21.212Z,100158.25
2023-12-07T21:47:54.332Z,100157.07
2023-12-07T21:50:26.641Z,100151.10
2023-12-07T21:52:58.813Z,100143.66
2023-12-07T21:55:30.988Z,100138.41
2023-12-07T21:58:03.135Z,100136.96
2023-12-07T22:00:35.221Z,100130.02
2023-12-07T22:03:07.718Z,100123.71
2023-12-07T22:05:40.508Z,100122.14
2023-12-07T22:08:12.685Z,100122.55
2023-12-07T22:10:44.867Z,100126.65
2023-12-07T22:13:17.744Z,100123.86
2023-12-07T22:15:49.818Z,100124.20
2023-12-07T22:18:22.074Z,100121.64
2023-12-07T22:20:54.380Z,100119.64
2023-12-07T22:23:26.579Z,100124.38
2023-12-07T22:25:58.756Z,100125.95
2023-12-07T22:28:30.857Z,100125.70
2023-12-07T22:31:03.118Z,100119.33
2023-12-07T22:33:36.252Z,100123.52
2023-12-07T22:36:09.757Z,100121.55
2023-12-07T22:38:41.972Z,100118.28
2023-12-07T22:41:17.321Z,100111.08
2023-12-07T22:43:49.466Z,100103.06
2023-12-07T22:46:22.115Z,100106.89
2023-12-07T22:48:54.351Z,100104.90
2023-12-07T22:51:26.646Z,100107.77
2023-12-07T22:53:58.850Z,100109.92
2023-12-07T22:56:30.993Z,100107.54
2023-12-07T22:59:03.119Z,100104.36
2023-12-07T23:01:35.238Z,100100.76
2023-12-07T23:04:08.464Z,100105.38
2023-12-07T23:06:40.777Z,100107.98
2023-12-07T23:09:12.948Z,100109.60
2023-12-07T23:11:45.212Z,100109.45
2023-12-07T23:14:17.972Z,100109.30
2023-12-07T23:16:50.035Z,100109.95
2023-12-07T23:19:22.186Z,100109.61
2023-12-07T23:21:54.400Z,100111.71
2023-12-07T23:24:26.385Z,100114.71
2023-12-07T23:26:58.412Z,100115.20
2023-12-07T23:29:30.518Z,100111.73
2023-12-07T23:32:02.675Z,100107.13
2023-12-07T23:34:35.277Z,100105.69
2023-12-07T23:37:07.620Z,100100.78
2023-12-07T23:39:39.646Z,100099.88
2023-12-07T23:42:11.788Z,100097.42
2023-12-07T23:44:43.857Z,100101.13
2023-12-07T23:47:15.864Z,100095.39
2023-12-07T23:49:48.049Z,100097.55
2023-12-07T23:52:20.288Z,100096.48
2023-12-07T23:54:52.288Z,100094.21
2023-12-07T23:57:24.540Z,100090.33
2023-12-07T23:59:56.849Z,100086.46
